Time;durP1;ratioP1;P1;durP2;ratioP2;P2;SDS_P1;SDS_P2;PMS_P1;PMS_P2;Temp;Humidity;BMP_temperature;BMP_pressure;BME280_temperature;BME280_humidity;BME280_pressure;Samples;Min_cycle;Max_cycle;Signal;HPM_P1;HPM_P2
2023/02/06 00:01:23;;;;;;;24.65;6.30;;;1.40;99.90;;;;;;7373971;19;20596;-76
2023/02/06 00:03:50;;;;;;;38.67;7.50;;;1.40;99.90;;;;;;7369979;19;20014;-76
2023/02/06 00:06:18;;;;;;;32.55;8.43;;;1.50;99.90;;;;;;7376348;19;20903;-76
2023/02/06 00:08:45;;;;;;;32.50;7.00;;;1.50;99.90;;;;;;7373058;19;20014;-69
2023/02/06 00:11:17;;;;;;;36.17;7.10;;;1.50;99.90;;;;;;7373389;19;20828;-76
2023/02/06 00:13:44;;;;;;;34.50;6.45;;;1.50;99.90;;;;;;7367163;19;20030;-70
2023/02/06 00:16:18;;;;;;;37.40;7.93;;;1.50;99.90;;;;;;7366060;19;20018;-69
2023/02/06 00:18:51;;;;;;;31.38;7.13;;;1.60;99.90;;;;;;7375286;19;20015;-70
2023/02/06 00:21:20;;;;;;;46.50;8.05;;;1.60;99.90;;;;;;7387455;19;20727;-76
2023/02/06 00:23:48;;;;;;;31.40;6.18;;;1.60;99.90;;;;;;7385500;19;20026;-69
2023/02/06 00:26:14;;;;;;;26.95;6.63;;;1.70;99.90;;;;;;7383758;19;20014;-76
2023/02/06 00:28:41;;;;;;;36.20;7.60;;;1.80;99.90;;;;;;7390961;19;20011;-69
2023/02/06 00:31:08;;;;;;;26.40;6.63;;;1.80;99.90;;;;;;7377095;19;20634;-69
2023/02/06 00:33:38;;;;;;;37.35;6.78;;;1.70;99.90;;;;;;7376526;19;20019;-70
2023/02/06 00:36:05;;;;;;;29.23;6.78;;;1.70;99.90;;;;;;7385796;19;20010;-76
2023/02/06 00:38:31;;;;;;;28.83;7.10;;;1.80;99.90;;;;;;7390074;19;20029;-77
2023/02/06 00:40:58;;;;;;;25.63;5.82;;;1.80;99.90;;;;;;7392054;19;20015;-76
2023/02/06 00:43:25;;;;;;;26.85;7.07;;;1.90;99.90;;;;;;7386765;19;20034;-70
2023/02/06 00:45:53;;;;;;;30.10;7.10;;;1.90;99.90;;;;;;7372783;19;20054;-70
2023/02/06 00:48:22;;;;;;;35.58;7.35;;;1.90;99.90;;;;;;7383464;19;20026;-76
2023/02/06 00:50:49;;;;;;;32.00;7.13;;;2.00;99.90;;;;;;7384937;19;20524;-70
2023/02/06 00:53:16;;;;;;;38.47;7.82;;;2.00;99.90;;;;;;7371584;19;20022;-70
2023/02/06 00:55:43;;;;;;;27.67;7.22;;;2.10;99.90;;;;;;7381835;19;20014;-76
2023/02/06 00:58:09;;;;;;;42.00;8.93;;;2.10;99.90;;;;;;7391962;19;20018;-76
2023/02/06 01:00:37;;;;;;;39.92;7.72;;;2.10;99.90;;;;;;7381484;19;20017;-76
2023/02/06 01:03:03;;;;;;;36.78;7.10;;;2.10;99.90;;;;;;7374877;19;20018;-70
2023/02/06 01:05:29;;;;;;;33.13;6.75;;;2.20;99.90;;;;;;7378291;19;20018;-70
2023/02/06 01:07:56;;;;;;;31.45;7.40;;;2.30;99.90;;;;;;7375673;19;20022;-76
2023/02/06 01:10:23;;;;;;;36.78;7.90;;;2.30;99.90;;;;;;7372791;19;20920;-70
2023/02/06 01:12:50;;;;;;;28.27;6.60;;;2.30;99.90;;;;;;7373310;19;20830;-76
2023/02/06 01:15:16;;;;;;;36.92;7.50;;;2.20;99.90;;;;;;7379878;19;21054;-70
2023/02/06 01:17:42;;;;;;;30.80;6.28;;;2.30;99.90;;;;;;7375271;19;20015;-70
2023/02/06 01:20:13;;;;;;;26.70;5.32;;;2.30;99.90;;;;;;7371873;19;20049;-70
2023/02/06 01:22:40;;;;;;;33.60;6.13;;;2.30;99.90;;;;;;7379257;19;20018;-76
2023/02/06 01:25:10;;;;;;;38.90;6.97;;;2.30;99.90;;;;;;7386775;19;20035;-76
2023/02/06 01:27:39;;;;;;;41.40;7.28;;;2.40;99.90;;;;;;7379879;19;20591;-70
2023/02/06 01:30:06;;;;;;;50.83;8.15;;;2.50;99.90;;;;;;7377009;19;20022;-70
2023/02/06 01:32:41;;;;;;;49.53;7.60;;;2.50;99.90;;;;;;7378871;19;20760;-77
2023/02/06 01:35:10;;;;;;;33.90;7.15;;;2.50;99.90;;;;;;7379637;19;20024;-70
2023/02/06 01:37:37;;;;;;;41.60;7.90;;;2.60;99.90;;;;;;7375129;19;20029;-71
2023/02/06 01:40:07;;;;;;;28.90;5.97;;;2.70;99.90;;;;;;7374783;19;20019;-70
2023/02/06 01:42:35;;;;;;;33.75;7.43;;;2.70;99.90;;;;;;7375972;19;20515;-70
2023/02/06 01:45:20;;;;;;;39.75;7.13;;;2.70;99.90;;;;;;7379992;19;20090;-70
2023/02/06 01:47:48;;;;;;;41.75;8.45;;;2.70;99.90;;;;;;7375841;19;20078;-70
2023/02/06 01:50:16;;;;;;;37.40;6.85;;;2.80;99.90;;;;;;7379741;19;20015;-76
2023/02/06 01:52:43;;;;;;;39.60;7.05;;;2.80;99.90;;;;;;7385466;19;20082;-76
2023/02/06 01:55:09;;;;;;;38.25;7.05;;;2.90;99.90;;;;;;7383682;19;20014;-76
2023/02/06 01:57:39;;;;;;;41.38;6.63;;;2.90;99.90;;;;;;7383303;19;20030;-75
2023/02/06 02:00:09;;;;;;;39.40;7.50;;;3.00;99.90;;;;;;7384522;19;20020;-75
2023/02/06 02:02:48;;;;;;;49.00;7.03;;;2.90;99.90;;;;;;7373348;19;20029;-76
2023/02/06 02:05:19;;;;;;;38.40;7.13;;;3.00;99.90;;;;;;7379412;19;20014;-76
2023/02/06 02:08:03;;;;;;;42.33;6.80;;;3.00;99.90;;;;;;7376899;19;20607;-76
2023/02/06 02:10:30;;;;;;;36.75;6.10;;;3.00;99.90;;;;;;7381190;19;20018;-76
2023/02/06 02:13:15;;;;;;;36.28;6.35;;;3.00;99.90;;;;;;7380505;19;20488;-76
2023/02/06 02:16:01;;;;;;;47.60;7.03;;;3.00;99.90;;;;;;7378440;19;20819;-76
2023/02/06 02:18:44;;;;;;;44.33;7.45;;;3.00;99.90;;;;;;7369494;19;20082;-70
2023/02/06 02:21:36;;;;;;;34.13;6.47;;;3.00;99.90;;;;;;7366814;19;20022;-70
2023/02/06 02:24:41;;;;;;;35.92;6.50;;;3.10;99.90;;;;;;7381270;19;20037;-76
2023/02/06 02:27:45;;;;;;;36.90;5.88;;;3.10;99.90;;;;;;7381226;19;20041;-76
2023/02/06 02:30:23;;;;;;;33.20;6.53;;;3.10;99.90;;;;;;7377004;19;20076;-70
2023/02/06 02:33:27;;;;;;;38.88;6.57;;;3.10;99.90;;;;;;7376467;19;20022;-70
2023/02/06 02:36:20;;;;;;;35.60;7.45;;;3.10;99.90;;;;;;7381602;19;20041;-77
2023/02/06 02:38:58;;;;;;;38.95;8.00;;;3.10;99.90;;;;;;7381416;19;20023;-70
2023/02/06 02:41:32;;;;;;;37.50;6.03;;;3.10;99.90;;;;;;7385780;19;20017;-70
2023/02/06 02:44:34;;;;;;;35.72;6.03;;;3.10;99.90;;;;;;7378487;19;20036;-76
2023/02/06 02:47:07;;;;;;;33.05;6.10;;;3.10;99.90;;;;;;7386386;19;20018;-76
2023/02/06 02:49:36;;;;;;;28.45;5.30;;;3.10;99.90;;;;;;7377277;19;20022;-70
2023/02/06 02:52:04;;;;;;;30.67;5.85;;;3.00;99.90;;;;;;7377667;19;20053;-70
2023/02/06 02:54:30;;;;;;;36.88;5.70;;;2.90;99.90;;;;;;7377653;19;20026;-75
2023/02/06 02:57:21;;;;;;;37.75;7.25;;;2.90;99.90;;;;;;7380440;19;20400;-75
2023/02/06 02:59:51;;;;;;;32.88;5.28;;;2.80;99.90;;;;;;7384443;19;20024;-72
2023/02/06 03:02:32;;;;;;;29.02;6.13;;;2.70;99.90;;;;;;7375843;19;20014;-70
2023/02/06 03:05:04;;;;;;;29.65;3.92;;;2.60;99.90;;;;;;7373659;19;20018;-72
2023/02/06 03:08:10;;;;;;;32.00;5.20;;;2.50;99.90;;;;;;7379587;19;20504;-75
2023/02/06 03:11:05;;;;;;;30.80;5.28;;;2.40;99.90;;;;;;7386365;19;20018;-75
2023/02/06 03:13:52;;;;;;;27.70;5.78;;;2.40;99.90;;;;;;7386559;19;20018;-75
2023/02/06 03:16:29;;;;;;;32.97;5.55;;;2.40;99.90;;;;;;7387541;19;20025;-75
2023/02/06 03:19:03;;;;;;;33.63;5.75;;;2.30;99.90;;;;;;7387099;19;20015;-75
2023/02/06 03:21:33;;;;;;;37.67;5.75;;;2.20;99.90;;;;;;7382670;19;20038;-75
2023/02/06 03:24:07;;;;;;;33.92;6.55;;;2.20;99.90;;;;;;7382359;19;20011;-76
2023/02/06 03:26:36;;;;;;;29.05;4.97;;;2.20;99.90;;;;;;7376410;19;20021;-75
2023/02/06 03:29:07;;;;;;;26.42;5.97;;;2.20;99.90;;;;;;7374968;19;20026;-75
2023/02/06 03:31:41;;;;;;;34.38;6.25;;;2.20;99.90;;;;;;7375895;19;20610;-71
2023/02/06 03:34:21;;;;;;;37.78;5.65;;;2.20;99.90;;;;;;7371764;19;20026;-71
2023/02/06 03:36:51;;;;;;;25.40;4.82;;;2.20;99.90;;;;;;7373227;19;20018;-75
2023/02/06 03:39:18;;;;;;;29.38;5.13;;;2.20;99.90;;;;;;7379347;19;20074;-71
2023/02/06 03:41:47;;;;;;;29.73;4.95;;;2.20;99.90;;;;;;7381936;19;20011;-75
2023/02/06 03:44:20;;;;;;;25.67;5.97;;;2.20;99.90;;;;;;7379241;19;20018;-75
2023/02/06 03:46:48;;;;;;;25.83;6.15;;;2.20;99.90;;;;;;7381724;19;20088;-75
2023/02/06 03:49:17;;;;;;;30.02;5.25;;;2.20;99.90;;;;;;7381020;19;20484;-71
2023/02/06 03:51:50;;;;;;;26.23;6.03;;;2.20;99.90;;;;;;7377026;19;20512;-70
2023/02/06 03:54:19;;;;;;;32.53;6.20;;;2.20;99.90;;;;;;7374954;19;20515;-71
2023/02/06 03:56:52;;;;;;;34.50;5.95;;;2.30;99.90;;;;;;7373659;19;20018;-71
2023/02/06 03:59:19;;;;;;;24.75;4.63;;;2.20;99.90;;;;;;7382438;19;20018;-76
2023/02/06 04:01:49;;;;;;;30.92;5.45;;;2.20;99.90;;;;;;7380801;19;20373;-70
2023/02/06 04:04:23;;;;;;;36.90;5.57;;;2.20;99.90;;;;;;7374576;19;20350;-70
2023/02/06 04:06:50;;;;;;;28.40;5.70;;;2.20;99.90;;;;;;7372159;19;20022;-71
2023/02/06 04:09:17;;;;;;;29.10;5.28;;;2.20;99.90;;;;;;7380060;19;20015;-71
2023/02/06 04:11:43;;;;;;;30.80;5.20;;;2.10;99.90;;;;;;7382547;19;20019;-72
2023/02/06 04:14:10;;;;;;;35.28;5.28;;;2.10;99.90;;;;;;7378291;19;20026;-71
2023/02/06 04:16:36;;;;;;;26.63;4.88;;;2.10;99.90;;;;;;7374450;19;20022;-71
2023/02/06 04:19:02;;;;;;;26.80;5.30;;;2.00;99.90;;;;;;7379663;19;20011;-71
2023/02/06 04:21:29;;;;;;;27.48;4.65;;;1.90;99.90;;;;;;7381106;19;20143;-71
2023/02/06 04:23:55;;;;;;;36.22;5.07;;;1.90;99.90;;;;;;7373974;19;20110;-71
2023/02/06 04:26:22;;;;;;;26.23;4.70;;;1.90;99.90;;;;;;7369045;19;20018;-71
2023/02/06 04:28:48;;;;;;;37.33;4.85;;;1.90;99.90;;;;;;7369440;19;20412;-71
2023/02/06 04:31:14;;;;;;;21.35;4.50;;;1.90;99.90;;;;;;7377010;19;20023;-76
2023/02/06 04:33:40;;;;;;;24.90;5.18;;;1.90;99.90;;;;;;7377822;19;20029;-71
2023/02/06 04:36:07;;;;;;;28.20;5.15;;;2.00;99.90;;;;;;7378957;19;20037;-71
2023/02/06 04:38:34;;;;;;;27.70;5.45;;;1.90;99.90;;;;;;7377771;19;20014;-71
2023/02/06 04:41:05;;;;;;;28.80;5.70;;;1.90;99.90;;;;;;7380565;19;20011;-76
2023/02/06 04:43:32;;;;;;;37.58;5.97;;;2.00;99.90;;;;;;7381100;19;20018;-75
2023/02/06 04:45:59;;;;;;;32.95;6.00;;;1.90;99.90;;;;;;7385267;19;20648;-75
2023/02/06 04:48:25;;;;;;;21.60;4.68;;;1.90;99.90;;;;;;7383771;19;20508;-76
2023/02/06 04:50:52;;;;;;;20.48;4.20;;;1.90;99.90;;;;;;7379522;19;20013;-75
2023/02/06 04:53:19;;;;;;;28.73;6.03;;;1.80;99.90;;;;;;7387856;19;20744;-76
2023/02/06 04:55:46;;;;;;;22.20;4.70;;;1.80;99.90;;;;;;7375802;19;21897;-72
2023/02/06 04:58:13;;;;;;;23.60;4.38;;;1.80;99.90;;;;;;7380139;19;20014;-76
2023/02/06 05:00:39;;;;;;;22.52;4.55;;;1.90;99.90;;;;;;7376585;19;20029;-71
2023/02/06 05:03:05;;;;;;;26.17;5.47;;;1.90;99.90;;;;;;7372997;19;20041;-74
2023/02/06 05:05:32;;;;;;;23.48;5.22;;;1.90;99.90;;;;;;7380477;19;20022;-75
2023/02/06 05:07:59;;;;;;;32.63;4.82;;;1.90;99.90;;;;;;7377445;19;20015;-72
2023/02/06 05:10:25;;;;;;;27.83;5.93;;;2.00;99.90;;;;;;7379708;19;20010;-71
2023/02/06 05:12:52;;;;;;;27.30;5.65;;;2.00;99.90;;;;;;7386837;19;20017;-78
2023/02/06 05:15:18;;;;;;;24.40;4.95;;;2.10;99.90;;;;;;7382365;19;20018;-73
2023/02/06 05:17:49;;;;;;;31.05;5.50;;;2.10;99.90;;;;;;7381045;19;20022;-71
2023/02/06 05:20:16;;;;;;;14.95;5.55;;;2.00;99.90;;;;;;7381250;19;20018;-71
2023/02/06 05:22:43;;;;;;;33.13;5.15;;;2.00;99.90;;;;;;7385817;19;20018;-76
2023/02/06 05:25:09;;;;;;;19.77;4.15;;;2.00;99.90;;;;;;7391399;19;20014;-76
2023/02/06 05:27:36;;;;;;;32.72;5.95;;;2.00;99.90;;;;;;7392791;19;20748;-76
2023/02/06 05:30:03;;;;;;;30.13;5.25;;;2.00;99.90;;;;;;7385619;19;20024;-71
2023/02/06 05:32:33;;;;;;;28.30;4.78;;;2.00;99.90;;;;;;7371661;19;20514;-72
2023/02/06 05:34:59;;;;;;;21.33;4.30;;;2.00;99.90;;;;;;7377597;19;20691;-72
2023/02/06 05:37:25;;;;;;;19.95;4.40;;;2.00;99.90;;;;;;7377147;19;20014;-72
2023/02/06 05:39:53;;;;;;;20.73;4.47;;;1.90;99.90;;;;;;7374688;19;20010;-76
2023/02/06 05:42:19;;;;;;;20.50;5.78;;;2.00;99.90;;;;;;7378319;19;20030;-75
2023/02/06 05:44:45;;;;;;;27.88;5.75;;;1.90;99.90;;;;;;7383504;19;20025;-76
2023/02/06 05:47:12;;;;;;;19.75;5.20;;;2.00;99.90;;;;;;7390755;19;20022;-76
2023/02/06 05:49:38;;;;;;;25.17;6.68;;;2.00;99.90;;;;;;7387215;19;20018;-75
2023/02/06 05:52:05;;;;;;;27.80;5.50;;;2.00;99.90;;;;;;7377159;19;20015;-71
2023/02/06 05:54:31;;;;;;;23.38;5.40;;;2.10;99.90;;;;;;7380135;19;20072;-72
2023/02/06 05:56:57;;;;;;;23.60;5.80;;;2.00;99.90;;;;;;7370988;19;20018;-72
2023/02/06 05:59:24;;;;;;;20.88;5.80;;;2.10;99.90;;;;;;7373970;19;20015;-76
2023/02/06 06:01:50;;;;;;;28.80;5.07;;;2.10;99.90;;;;;;7375518;19;20045;-72
2023/02/06 06:04:17;;;;;;;18.63;4.93;;;2.10;99.90;;;;;;7375302;19;20469;-71
2023/02/06 06:06:44;;;;;;;26.08;5.40;;;2.10;99.90;;;;;;7371778;19;20028;-72
2023/02/06 06:09:11;;;;;;;24.10;4.65;;;2.10;99.90;;;;;;7371716;19;20146;-71
2023/02/06 06:11:37;;;;;;;20.50;5.68;;;2.10;99.90;;;;;;7370767;19;20104;-71
2023/02/06 06:14:04;;;;;;;35.35;6.07;;;2.10;99.90;;;;;;7373446;19;20074;-72
2023/02/06 06:16:31;;;;;;;22.13;5.60;;;2.10;99.90;;;;;;7385372;19;20018;-76
2023/02/06 06:18:57;;;;;;;27.58;6.03;;;2.10;99.90;;;;;;7383580;19;20022;-76
2023/02/06 06:21:24;;;;;;;28.08;5.93;;;2.10;99.90;;;;;;7385604;19;20101;-77
2023/02/06 06:23:51;;;;;;;30.67;5.97;;;2.10;99.90;;;;;;7371182;19;20129;-75
2023/02/06 06:26:18;;;;;;;29.55;5.93;;;2.10;99.90;;;;;;7373053;19;20022;-73
2023/02/06 06:28:44;;;;;;;25.23;6.22;;;2.10;99.90;;;;;;7369949;19;20015;-74
2023/02/06 06:31:13;;;;;;;28.23;5.63;;;2.10;99.90;;;;;;7369479;19;20026;-70
2023/02/06 06:33:40;;;;;;;21.88;5.43;;;2.10;99.90;;;;;;7377065;19;20023;-74
2023/02/06 06:36:08;;;;;;;34.72;6.50;;;2.10;99.90;;;;;;7378297;19;20027;-74
2023/02/06 06:38:35;;;;;;;19.40;4.68;;;2.10;99.90;;;;;;7384916;19;20029;-75
2023/02/06 06:41:05;;;;;;;22.67;5.82;;;2.10;99.90;;;;;;7381224;19;20022;-75
2023/02/06 06:43:32;;;;;;;23.70;5.30;;;2.10;99.90;;;;;;7375544;19;20014;-75
2023/02/06 06:46:00;;;;;;;25.40;5.70;;;2.10;99.90;;;;;;7375348;19;20030;-74
2023/02/06 06:48:27;;;;;;;34.63;6.13;;;2.20;99.90;;;;;;7387313;19;20469;-77
2023/02/06 06:50:53;;;;;;;22.67;5.60;;;2.20;99.90;;;;;;7382783;19;20018;-74
2023/02/06 06:53:20;;;;;;;20.23;5.43;;;2.20;99.90;;;;;;7384797;19;20017;-76
2023/02/06 06:55:46;;;;;;;26.75;6.13;;;2.20;99.90;;;;;;7381478;19;20025;-73
2023/02/06 06:58:15;;;;;;;27.13;6.35;;;2.20;99.90;;;;;;7381655;19;20516;-76
2023/02/06 07:00:42;;;;;;;26.02;5.38;;;2.20;99.90;;;;;;7381554;19;20025;-70
2023/02/06 07:03:10;;;;;;;16.65;5.47;;;2.20;99.90;;;;;;7372141;19;20015;-71
2023/02/06 07:05:41;;;;;;;;;;;2.30;99.90;;;;;;7373934;19;20086;-71
2023/02/06 07:08:07;;;;;;;23.33;5.97;;;2.30;99.90;;;;;;7372303;19;19922;-71
2023/02/06 07:10:34;;;;;;;19.52;6.00;;;2.30;99.90;;;;;;7370728;19;20026;-71
2023/02/06 07:13:00;;;;;;;28.30;5.45;;;2.30;99.90;;;;;;7368796;19;20018;-71
2023/02/06 07:15:26;;;;;;;27.58;5.95;;;2.30;99.90;;;;;;7373328;19;20081;-71
2023/02/06 07:17:53;;;;;;;33.67;6.80;;;2.30;99.90;;;;;;7365617;19;20085;-71
2023/02/06 07:20:21;;;;;;;27.55;5.95;;;2.30;99.90;;;;;;7372474;19;20085;-73
2023/02/06 07:22:49;;;;;;;24.85;5.80;;;2.30;99.90;;;;;;7371559;19;20022;-72
2023/02/06 07:25:17;;;;;;;26.33;5.60;;;2.40;99.90;;;;;;7370452;19;20098;-71
2023/02/06 07:27:47;;;;;;;24.00;5.90;;;2.40;99.90;;;;;;7371486;19;20014;-71
2023/02/06 07:30:14;;;;;;;20.02;5.93;;;2.40;99.90;;;;;;7371638;19;20143;-72
2023/02/06 07:32:40;;;;;;;27.70;7.20;;;2.40;99.90;;;;;;7369783;19;20025;-72
2023/02/06 07:35:06;;;;;;;33.28;7.30;;;2.40;99.90;;;;;;7371420;19;20551;-72
2023/02/06 07:37:54;;;;;;;29.75;6.72;;;2.50;99.90;;;;;;7370754;19;20022;-73
2023/02/06 07:40:21;;;;;;;21.90;7.50;;;2.60;99.90;;;;;;7372617;19;20015;-72
2023/02/06 07:42:48;;;;;;;33.63;7.63;;;2.60;99.90;;;;;;7368345;19;20014;-72
2023/02/06 07:45:29;;;;;;;28.65;6.90;;;2.60;99.90;;;;;;7370726;19;20050;-72
2023/02/06 07:47:55;;;;;;;22.45;6.45;;;2.60;99.90;;;;;;7371433;19;20093;-71
2023/02/06 07:50:22;;;;;;;21.80;6.60;;;2.60;99.90;;;;;;7370213;19;20010;-70
2023/02/06 07:52:51;;;;;;;29.30;7.45;;;2.70;99.90;;;;;;7372096;19;20630;-70
2023/02/06 07:55:17;;;;;;;31.48;6.95;;;2.70;99.90;;;;;;7368031;19;20822;-69
2023/02/06 07:57:44;;;;;;;27.00;7.38;;;2.70;99.90;;;;;;7370816;19;20026;-69
2023/02/06 08:00:11;;;;;;;35.20;6.60;;;2.80;99.90;;;;;;7368447;19;20035;-69
2023/02/06 08:02:44;;;;;;;29.77;6.60;;;2.80;99.90;;;;;;7370169;19;20480;-69
2023/02/06 08:05:10;;;;;;;30.48;6.60;;;2.80;99.90;;;;;;7367179;19;20050;-70
2023/02/06 08:07:37;;;;;;;36.80;7.40;;;2.90;99.90;;;;;;7371669;19;20019;-69
2023/02/06 08:10:04;;;;;;;31.92;7.13;;;3.00;99.90;;;;;;7367775;19;20018;-70
2023/02/06 08:12:36;;;;;;;33.97;7.97;;;3.10;99.90;;;;;;7367212;19;20029;-70
2023/02/06 08:15:24;;;;;;;40.80;7.88;;;3.20;99.90;;;;;;7374022;19;20018;-73
2023/02/06 08:17:50;;;;;;;40.45;7.78;;;3.30;99.90;;;;;;7373070;19;20085;-75
2023/02/06 08:20:16;;;;;;;39.80;8.15;;;3.40;99.90;;;;;;7368592;19;20014;-69
2023/02/06 08:22:45;;;;;;;40.35;9.70;;;3.50;99.90;;;;;;7372999;19;20044;-69
2023/02/06 08:25:12;;;;;;;43.20;12.82;;;3.70;99.90;;;;;;7368224;19;20018;-69
2023/02/06 08:27:38;;;;;;;35.13;12.23;;;3.70;99.90;;;;;;7370700;19;20026;-69
2023/02/06 08:30:09;;;;;;;44.28;10.50;;;3.80;99.90;;;;;;7368904;19;20018;-68
2023/02/06 08:32:35;;;;;;;48.40;11.00;;;3.90;99.90;;;;;;7365629;19;20103;-70
2023/02/06 08:35:02;;;;;;;47.58;11.18;;;4.00;99.90;;;;;;7368358;19;20114;-69
2023/02/06 08:37:29;;;;;;;39.92;12.07;;;4.00;99.90;;;;;;7370191;19;20022;-68
2023/02/06 08:40:07;;;;;;;35.00;12.70;;;4.10;99.90;;;;;;7370580;19;20033;-68
2023/02/06 08:42:33;;;;;;;37.85;9.07;;;4.20;99.90;;;;;;7376777;19;20504;-76
2023/02/06 08:45:00;;;;;;;32.00;7.57;;;4.30;99.90;;;;;;7388594;19;20011;-68
2023/02/06 08:47:26;;;;;;;30.75;8.25;;;4.40;99.90;;;;;;7387810;19;20010;-76
2023/02/06 08:49:53;;;;;;;32.05;8.65;;;4.60;99.90;;;;;;7380305;19;20018;-77
2023/02/06 08:52:21;;;;;;;37.78;8.35;;;4.70;99.90;;;;;;7381249;19;20023;-68
2023/02/06 08:54:51;;;;;;;41.47;8.35;;;4.80;99.90;;;;;;7372501;19;20014;-69
2023/02/06 08:57:19;;;;;;;40.28;8.20;;;5.00;99.90;;;;;;7376290;19;20022;-68
2023/02/06 08:59:45;;;;;;;35.10;7.10;;;5.10;99.90;;;;;;7375611;19;20465;-79
2023/02/06 09:02:13;;;;;;;40.88;7.50;;;5.20;99.90;;;;;;7389952;19;20620;-78
2023/02/06 09:04:41;;;;;;;33.70;7.13;;;5.30;99.90;;;;;;7387606;19;20046;-68
2023/02/06 09:07:07;;;;;;;27.25;6.10;;;5.40;99.90;;;;;;7374202;19;20482;-68
2023/02/06 09:09:34;;;;;;;30.75;6.50;;;5.50;99.90;;;;;;7382319;19;20045;-82
2023/02/06 09:12:02;;;;;;;28.45;6.70;;;5.60;99.90;;;;;;7379635;19;20014;-80
2023/02/06 09:14:29;;;;;;;31.13;6.72;;;5.60;99.90;;;;;;7392020;19;20014;-80
2023/02/06 09:16:57;;;;;;;39.58;7.15;;;5.60;99.90;;;;;;7392357;19;20736;-82
2023/02/06 09:19:25;;;;;;;30.42;7.10;;;5.70;99.90;;;;;;7380814;19;20098;-80
2023/02/06 09:21:52;;;;;;;25.10;6.57;;;5.70;99.90;;;;;;7381512;19;20520;-69
2023/02/06 09:24:19;;;;;;;27.73;6.80;;;5.70;99.90;;;;;;7375653;19;20400;-68
2023/02/06 09:26:45;;;;;;;26.52;6.90;;;5.80;99.90;;;;;;7381780;19;20717;-67
2023/02/06 09:29:13;;;;;;;30.65;5.97;;;5.70;99.90;;;;;;7372400;19;20033;-68
2023/02/06 09:31:41;;;;;;;34.22;7.45;;;5.80;99.90;;;;;;7380820;19;20014;-78
2023/02/06 09:34:09;;;;;;;37.13;8.50;;;5.90;99.90;;;;;;7386623;19;20550;-78
2023/02/06 09:36:37;;;;;;;43.70;7.13;;;5.80;99.90;;;;;;7383243;19;20014;-66
2023/02/06 09:39:05;;;;;;;33.38;7.18;;;5.90;99.90;;;;;;7372749;19;20322;-66
2023/02/06 09:41:34;;;;;;;35.38;7.30;;;6.00;99.90;;;;;;7382304;19;20010;-68
2023/02/06 09:44:19;;;;;;;34.45;8.32;;;6.00;99.90;;;;;;7383810;19;20022;-80
2023/02/06 09:47:16;;;;;;;43.55;9.40;;;6.10;99.90;;;;;;7391271;19;20072;-80
2023/02/06 09:50:06;;;;;;;32.15;7.22;;;6.20;99.90;;;;;;7383231;19;20026;-77
2023/02/06 09:53:02;;;;;;;29.60;7.05;;;6.30;99.90;;;;;;7386524;19;20029;-77
2023/02/06 09:55:46;;;;;;;32.17;7.78;;;6.30;99.90;;;;;;7381238;19;20026;-78
2023/02/06 09:58:44;;;;;;;39.90;8.30;;;6.40;99.90;;;;;;7389686;19;20031;-78
2023/02/06 10:01:36;;;;;;;44.20;7.47;;;6.50;99.90;;;;;;7387734;19;20022;-79
2023/02/06 10:04:21;;;;;;;35.75;6.65;;;6.50;99.90;;;;;;7380105;19;20019;-80
2023/02/06 10:06:58;;;;;;;28.10;6.60;;;6.60;99.90;;;;;;7382947;19;20019;-80
2023/02/06 10:10:11;;;;;;;38.30;7.57;;;6.60;99.90;;;;;;7383335;19;20022;-80
2023/02/06 10:13:14;;;;;;;30.52;7.20;;;6.70;99.90;;;;;;7376472;19;20019;-80
2023/02/06 10:15:57;;;;;;;41.85;8.43;;;6.90;99.90;;;;;;7375304;19;20022;-80
2023/02/06 10:18:38;;;;;;;46.33;8.73;;;7.00;99.90;;;;;;7377609;19;20019;-69
2023/02/06 10:21:40;;;;;;;47.15;8.07;;;7.10;99.90;;;;;;7366374;19;20138;-71
2023/02/06 10:24:58;;;;;;;36.33;8.25;;;7.20;99.90;;;;;;7369441;19;20898;-68
2023/02/06 10:27:24;;;;;;;43.33;8.55;;;7.20;99.90;;;;;;7369607;19;20499;-68
2023/02/06 10:30:17;;;;;;;41.92;8.95;;;7.30;99.90;;;;;;7369896;19;20025;-69
2023/02/06 10:33:13;;;;;;;36.92;8.30;;;7.50;99.90;;;;;;7371400;19;20484;-68
2023/02/06 10:36:02;;;;;;;45.75;9.40;;;7.50;99.90;;;;;;7384217;19;20022;-80
2023/02/06 10:38:56;;;;;;;37.63;8.75;;;7.60;99.90;;;;;;7388901;19;20011;-77
2023/02/06 10:42:03;;;;;;;36.08;7.30;;;7.80;99.90;;;;;;7387420;19;20014;-80
2023/02/06 10:45:00;;;;;;;32.25;8.43;;;7.90;99.90;;;;;;7382539;19;20114;-82
2023/02/06 10:47:53;;;;;;;27.30;7.70;;;8.10;99.90;;;;;;7386929;19;20041;-81
2023/02/06 10:50:35;;;;;;;33.25;8.10;;;8.20;99.90;;;;;;7386037;19;20051;-81
2023/02/06 10:53:32;;;;;;;23.90;7.97;;;8.40;99.90;;;;;;7386609;19;20018;-81
2023/02/06 10:56:13;;;;;;;25.70;8.13;;;8.50;99.90;;;;;;7390161;19;20683;-81
2023/02/06 10:58:53;;;;;;;28.55;8.77;;;8.60;99.90;;;;;;7372528;19;20018;-68
2023/02/06 11:01:21;;;;;;;33.38;8.57;;;8.70;99.90;;;;;;7368272;19;20015;-68
2023/02/06 11:04:09;;;;;;;27.90;8.50;;;8.80;99.90;;;;;;7366533;19;20006;-69
2023/02/06 11:06:38;;;;;;;29.55;8.70;;;8.80;99.90;;;;;;7369701;19;20027;-71
2023/02/06 11:09:05;;;;;;;34.03;8.98;;;8.90;99.90;;;;;;7370809;19;20025;-68
2023/02/06 11:11:36;;;;;;;25.08;7.72;;;9.20;99.90;;;;;;7365785;19;20022;-67
2023/02/06 11:14:23;;;;;;;32.40;8.43;;;9.40;99.90;;;;;;7366916;19;20039;-67
2023/02/06 11:16:49;;;;;;;30.45;7.97;;;9.40;99.90;;;;;;7371027;19;20058;-66
2023/02/06 11:19:26;;;;;;;26.50;7.30;;;9.90;99.90;;;;;;7370848;19;20022;-67
2023/02/06 11:21:55;;;;;;;25.20;7.75;;;10.00;99.90;;;;;;7368575;19;20696;-67
2023/02/06 11:24:23;;;;;;;29.63;7.10;;;11.00;99.90;;;;;;7371447;19;20019;-68
2023/02/06 11:26:58;;;;;;;24.38;6.47;;;10.90;99.90;;;;;;7380788;19;20011;-80
2023/02/06 11:29:35;;;;;;;26.55;7.88;;;11.30;99.90;;;;;;7382586;19;20946;-67
2023/02/06 11:32:05;;;;;;;25.42;5.57;;;11.20;99.90;;;;;;7373869;19;20014;-80
2023/02/06 11:34:34;;;;;;;23.65;7.70;;;11.10;99.90;;;;;;7385818;19;20023;-79
2023/02/06 11:37:24;;;;;;;25.25;6.90;;;11.70;99.90;;;;;;7386505;19;20031;-79
2023/02/06 11:39:52;;;;;;;21.13;5.38;;;11.70;99.90;;;;;;7389481;19;20516;-80
2023/02/06 11:42:21;;;;;;;23.83;5.13;;;10.90;99.90;;;;;;7383627;19;20024;-80
2023/02/06 11:44:51;;;;;;;25.10;5.40;;;10.80;99.90;;;;;;7382157;19;20018;-79
2023/02/06 11:47:30;;;;;;;27.20;9.57;;;11.40;99.90;;;;;;7385268;19;20025;-79
2023/02/06 11:50:22;;;;;;;18.08;4.53;;;12.00;99.90;;;;;;7374876;19;20034;-69
2023/02/06 11:52:54;;;;;;;18.83;4.40;;;12.10;99.90;;;;;;7370801;19;20017;-67
2023/02/06 11:55:29;;;;;;;23.05;6.38;;;11.90;99.90;;;;;;7371168;19;20019;-67
2023/02/06 11:58:11;;;;;;;21.20;4.35;;;12.20;99.90;;;;;;7370306;19;20035;-67
2023/02/06 12:00:55;;;;;;;23.85;8.50;;;13.10;99.90;;;;;;7374780;19;20015;-76
2023/02/06 12:03:58;;;;;;;18.83;4.28;;;13.90;99.90;;;;;;7377058;19;20021;-77
2023/02/06 12:06:35;;;;;;;17.60;4.35;;;14.40;99.90;;;;;;7388163;19;20018;-78
2023/02/06 12:09:08;;;;;;;19.00;5.63;;;14.50;99.90;;;;;;7372791;19;20069;-67
2023/02/06 12:12:14;;;;;;;19.83;6.47;;;14.10;99.90;;;;;;7369037;19;20506;-66
2023/02/06 12:14:51;;;;;;;29.25;15.48;;;13.20;99.90;;;;;;7380432;19;20017;-77
2023/02/06 12:17:27;;;;;;;21.48;5.05;;;12.60;99.90;;;;;;7372616;19;20408;-79
2023/02/06 12:20:06;;;;;;;20.42;4.82;;;13.20;99.90;;;;;;7385064;19;20030;-67
2023/02/06 12:22:39;;;;;;;19.98;4.28;;;14.20;99.90;;;;;;7371736;19;20097;-75
2023/02/06 12:25:34;;;;;;;25.15;13.77;;;14.90;99.90;;;;;;7373043;19;20896;-66
2023/02/06 12:28:18;;;;;;;16.48;3.95;;;15.50;99.90;;;;;;7372597;19;20389;-66
2023/02/06 12:30:50;;;;;;;18.40;4.35;;;15.90;99.90;;;;;;7372841;19;20019;-67
2023/02/06 12:33:21;;;;;;;19.20;5.68;;;16.70;99.90;;;;;;7369218;19;20014;-66
2023/02/06 12:35:54;;;;;;;19.75;7.85;;;17.00;99.90;;;;;;7369632;19;20014;-66
2023/02/06 12:38:50;;;;;;;25.00;14.75;;;17.20;99.90;;;;;;7371260;19;20019;-75
2023/02/06 12:41:49;;;;;;;14.27;5.55;;;16.30;95.20;;;;;;7375109;19;20041;-74
2023/02/06 12:44:26;;;;;;;15.63;3.85;;;15.00;99.90;;;;;;7378187;19;20071;-74
2023/02/06 12:47:03;;;;;;;17.02;3.58;;;14.70;99.90;;;;;;7379171;19;20018;-74
2023/02/06 12:49:50;;;;;;;15.93;3.80;;;14.60;99.90;;;;;;7377644;19;20019;-74
2023/02/06 12:52:20;;;;;;;13.43;3.80;;;14.80;99.90;;;;;;7380756;19;20432;-75
2023/02/06 12:55:10;;;;;;;15.73;5.18;;;15.30;99.90;;;;;;7377335;19;20022;-75
2023/02/06 12:57:38;;;;;;;14.65;4.50;;;16.00;92.80;;;;;;7376737;19;20488;-74
2023/02/06 13:00:21;;;;;;;22.17;10.00;;;16.50;99.90;;;;;;7368897;19;20110;-67
2023/02/06 13:03:02;;;;;;;14.60;3.45;;;16.30;83.50;;;;;;7366621;19;20010;-66
2023/02/06 13:05:41;;;;;;;14.48;4.72;;;15.60;94.60;;;;;;7366622;19;20018;-67
2023/02/06 13:08:39;;;;;;;18.38;6.53;;;14.90;97.50;;;;;;7367811;19;20023;-66
2023/02/06 13:11:22;;;;;;;38.10;26.05;;;14.00;99.90;;;;;;7367338;19;20018;-66
2023/02/06 13:13:57;;;;;;;16.52;4.00;;;13.40;99.90;;;;;;7368242;19;20396;-65
2023/02/06 13:16:49;;;;;;;13.50;4.15;;;12.90;99.90;;;;;;7380341;19;20354;-73